LiveATC.Net - Listen to live air traffic control over the Internet!


ICAO: FMMI  IATA: TNR   Airport: Ivato International Airport
City: Antananarivo
Country: Madagascar   Continent: Africa
FMMI METAR Weather: FMMI 161330Z 33013KT 9999 TS SCT020CB SCT023 26/17 Q1014 TEMPO 4500 TSRA
FMMI Flight Activity (FlightAware)

FMMI Twr/App/Center
Feed Status: UP   Listeners: 0
Listen in your browser - HTML5 player (in browser, HTML5)
Click here to listen with your own player (launches your MP3 player)
Archive Access: FMMI Twr/App/Center
FacilityFrequency
Ivato Approach125.700
Ivato Tower120.100
Tana Control128.900

NOTICE

Unauthorized use prohibited. See LiveATC.net Terms of Service


Airport/ARTCC Code
Frequency Search
(e.g., 124.400, 128.75)
Site-wide search
 


Browse Feeds
Top 50 Feeds
Coverage Map
Bad Weather Areas

LiveATC FAQ
Offer LiveATC feed
Contact LiveATC.net
Press Inquiries

LiveATC on iPhone
LiveATC on Android

Windows Phone
Windows 8/10

LiveATC Mobile
(Mobile browser)

ATC Audio Archives
Interesting Recordings

LiveATC Forums


Home Page
About LiveATC.net
Make a Donation
Terms of Use
Privacy Policy

Canadian Air Freqs

AIRMETs/SIGMETs

FAA Airport Status
Nat'l Airspace Status
Arrival Demand Charts


Server Software By:
Icecast.org
Liquidsoap